Time;durP1;ratioP1;P1;durP2;ratioP2;P2;SDS_P1;SDS_P2;PMS_P1;PMS_P2;Temp;Humidity;BMP_temperature;BMP_pressure;BME280_temperature;BME280_humidity;BME280_pressure;Samples;Min_cycle;Max_cycle;Signal;HPM_P1;HPM_P2
2022/04/19 00:00:17;;;;;;;1.50;0.67;;;;;;;3.82;66.47;99117.47;1784018;79;21127;-49
2022/04/19 00:02:43;;;;;;;2.37;0.97;;;;;;;3.78;66.71;99111.36;1787768;79;21071;-49
2022/04/19 00:05:09;;;;;;;1.30;0.60;;;;;;;3.75;66.86;99114.98;1786347;79;21350;-50
2022/04/19 00:07:38;;;;;;;1.20;0.70;;;;;;;3.74;66.99;99111.90;1787795;79;21792;-49
2022/04/19 00:10:08;;;;;;;1.00;0.70;;;;;;;3.77;67.25;99116.27;1781716;79;21516;-49
2022/04/19 00:12:36;;;;;;;1.93;0.60;;;;;;;3.79;67.69;99115.77;1765309;79;21327;-50
2022/04/19 00:15:03;;;;;;;2.00;0.73;;;;;;;3.82;67.89;99117.02;1762363;79;22017;-49
2022/04/19 00:17:32;;;;;;;1.10;0.73;;;;;;;3.85;68.28;99106.25;1762724;79;21244;-49
2022/04/19 00:19:59;;;;;;;3.03;0.70;;;;;;;3.88;68.51;99102.63;1764702;79;21072;-49
2022/04/19 00:22:27;;;;;;;1.50;0.70;;;;;;;3.91;68.81;99105.20;1764197;79;20993;-50
2022/04/19 00:24:55;;;;;;;1.83;0.90;;;;;;;3.92;69.11;99096.27;1759959;79;21105;-50
2022/04/19 00:27:24;;;;;;;1.30;0.80;;;;;;;3.89;69.54;99099.92;1762263;79;20894;-48
2022/04/19 00:29:50;;;;;;;1.40;0.90;;;;;;;3.84;69.70;99100.97;1764532;79;20946;-50
2022/04/19 00:32:16;;;;;;;2.37;1.00;;;;;;;3.79;69.96;99101.13;1762393;79;20884;-49
2022/04/19 00:34:44;;;;;;;2.07;1.17;;;;;;;3.75;70.19;99097.67;1761047;79;21033;-50
2022/04/19 00:37:11;;;;;;;2.23;0.73;;;;;;;3.73;70.48;99103.98;1765377;79;20950;-49
2022/04/19 00:39:37;;;;;;;1.20;0.80;;;;;;;3.69;70.83;99099.66;1763902;79;21927;-49
2022/04/19 00:42:04;;;;;;;1.80;0.80;;;;;;;3.67;71.10;99089.06;1757682;79;21034;-48
2022/04/19 00:44:37;;;;;;;1.03;0.80;;;;;;;3.68;71.47;99085.48;1759498;79;21390;-49
2022/04/19 00:47:01;;;;;;;1.83;0.87;;;;;;;3.70;71.73;99094.75;1761706;79;21005;-49
2022/04/19 00:49:28;;;;;;;1.47;0.90;;;;;;;3.72;72.07;99087.14;1761285;79;20927;-50
2022/04/19 00:51:56;;;;;;;1.13;0.90;;;;;;;3.73;72.36;99096.00;1735291;80;21335;-50
2022/04/19 00:54:23;;;;;;;1.27;0.90;;;;;;;3.72;72.41;99099.13;1757477;79;21053;-50
2022/04/19 00:56:53;;;;;;;2.07;1.40;;;;;;;3.72;72.50;99096.46;1761040;79;21104;-49
2022/04/19 00:59:21;;;;;;;1.00;0.80;;;;;;;3.69;73.02;99101.87;1737415;79;20926;-48
2022/04/19 01:01:51;;;;;;;1.10;1.00;;;;;;;3.61;73.25;99105.23;1760710;79;20945;-49
2022/04/19 01:04:19;;;;;;;1.20;0.90;;;;;;;3.54;73.41;99102.34;1761546;79;21111;-49
2022/04/19 01:06:45;;;;;;;2.33;0.90;;;;;;;3.51;73.74;99096.23;1759612;79;20942;-49
2022/04/19 01:09:13;;;;;;;1.83;0.90;;;;;;;3.47;74.30;99094.59;1737003;79;21300;-50
2022/04/19 01:14:25;;;;;;;3.30;1.10;;;;;;;3.43;74.52;99101.78;1786461;79;21307;-50
2022/04/19 01:16:54;;;;;;;1.97;0.93;;;;;;;3.45;74.63;99097.75;1803597;79;21714;-49
2022/04/19 01:19:22;;;;;;;0.90;0.70;;;;;;;3.43;74.57;99097.79;1804528;79;20950;-49
2022/04/19 01:21:54;;;;;;;1.83;0.90;;;;;;;3.40;74.52;99094.75;1787221;79;21023;-50
2022/04/19 01:24:25;;;;;;;1.00;0.80;;;;;;;3.37;74.68;99095.33;1777114;79;21037;-48
2022/04/19 01:26:55;;;;;;;1.00;0.70;;;;;;;3.36;74.66;99092.24;1783014;79;21506;-49
2022/04/19 01:29:22;;;;;;;0.83;0.67;;;;;;;3.33;74.60;99093.66;1780883;79;21268;-49
2022/04/19 01:31:51;;;;;;;0.80;0.60;;;;;;;3.29;74.70;99095.55;1783545;79;21062;-50
2022/04/19 01:34:19;;;;;;;0.63;0.50;;;;;;;3.29;74.71;99087.57;1758176;79;21434;-49
2022/04/19 01:36:46;;;;;;;0.70;0.53;;;;;;;3.29;74.68;99084.04;1802074;79;20978;-48
2022/04/19 01:39:14;;;;;;;1.13;0.57;;;;;;;3.28;74.79;99083.62;1746478;80;20961;-50
2022/04/19 01:41:42;;;;;;;0.80;0.50;;;;;;;3.26;74.87;99084.99;1801682;79;20898;-50
2022/04/19 01:44:09;;;;;;;1.07;0.73;;;;;;;3.26;75.24;99092.97;1803884;79;20921;-49
2022/04/19 01:46:36;;;;;;;0.80;0.50;;;;;;;3.23;75.21;99081.08;1750026;80;21383;-50
2022/04/19 01:49:04;;;;;;;1.17;0.53;;;;;;;3.18;75.40;99084.80;1767114;79;21489;-49
2022/04/19 01:51:31;;;;;;;0.60;0.50;;;;;;;3.13;75.70;99074.77;1774350;80;21394;-48
2022/04/19 01:53:58;;;;;;;0.83;0.60;;;;;;;3.11;76.07;99076.59;1776308;80;21760;-50
2022/04/19 01:56:26;;;;;;;0.50;0.40;;;;;;;3.07;76.22;99076.25;1803088;79;20883;-50
2022/04/19 01:58:54;;;;;;;1.37;0.47;;;;;;;3.04;76.41;99072.79;1775298;79;20883;-48
2022/04/19 02:01:22;;;;;;;0.60;0.40;;;;;;;3.06;76.60;99070.55;1774725;80;21839;-50
2022/04/19 02:03:50;;;;;;;0.70;0.60;;;;;;;3.08;76.65;99067.36;1774291;80;21045;-48
2022/04/19 02:06:20;;;;;;;0.50;0.40;;;;;;;3.09;76.68;99066.45;1771678;79;22243;-50
2022/04/19 02:08:48;;;;;;;0.50;0.40;;;;;;;3.10;76.73;99071.73;1773689;80;20917;-49
2022/04/19 02:11:18;;;;;;;0.70;0.50;;;;;;;3.12;76.72;99067.70;1776473;80;20978;-48
2022/04/19 02:13:46;;;;;;;0.77;0.60;;;;;;;3.13;76.71;99061.47;1775384;80;21387;-50
2022/04/19 02:16:14;;;;;;;1.53;0.40;;;;;;;3.08;76.77;99063.37;1771060;79;21426;-50
2022/04/19 02:18:43;;;;;;;0.50;0.40;;;;;;;3.03;76.76;99066.18;1801388;79;20898;-50
2022/04/19 02:21:09;;;;;;;0.63;0.40;;;;;;;3.02;76.95;99065.77;1776909;80;20875;-50
2022/04/19 02:23:37;;;;;;;0.47;0.40;;;;;;;2.99;76.96;99069.38;1777611;80;20914;-49
2022/04/19 02:26:04;;;;;;;0.50;0.30;;;;;;;2.99;77.04;99068.05;1774286;79;21021;-50
2022/04/19 02:28:31;;;;;;;0.50;0.40;;;;;;;3.01;77.16;99068.88;1801097;79;21298;-50
2022/04/19 02:31:00;;;;;;;0.57;0.57;;;;;;;3.04;77.22;99065.27;1780247;79;21756;-49
2022/04/19 02:33:29;;;;;;;1.23;0.50;;;;;;;3.08;77.13;99059.39;1775530;79;20988;-49
2022/04/19 02:35:55;;;;;;;1.27;0.50;;;;;;;3.10;77.19;99060.22;1802381;79;21275;-50
2022/04/19 02:38:22;;;;;;;1.30;0.50;;;;;;;3.12;77.13;99059.27;1772402;80;21073;-49
2022/04/19 02:40:51;;;;;;;3.33;0.50;;;;;;;3.11;77.09;99052.66;1773736;80;21034;-50
2022/04/19 02:43:17;;;;;;;0.60;0.50;;;;;;;3.10;77.07;99053.58;1799238;79;21350;-49
2022/04/19 02:45:45;;;;;;;0.60;0.40;;;;;;;3.06;77.08;99054.59;1800728;79;22497;-50
2022/04/19 02:48:13;;;;;;;0.80;0.40;;;;;;;3.03;77.12;99057.75;1775614;80;20910;-48
2022/04/19 02:50:44;;;;;;;0.50;0.40;;;;;;;3.03;77.17;99057.75;1803423;79;21068;-50
2022/04/19 02:53:13;;;;;;;0.50;0.43;;;;;;;3.05;77.10;99053.72;1771099;79;20937;-50
2022/04/19 02:55:40;;;;;;;0.50;0.40;;;;;;;3.06;77.13;99047.95;1806002;79;22109;-50
2022/04/19 02:58:07;;;;;;;0.40;0.30;;;;;;;3.07;77.08;99049.20;1778739;79;21494;-50
2022/04/19 03:00:37;;;;;;;0.50;0.40;;;;;;;3.10;77.08;99052.24;1773046;80;22392;-50
2022/04/19 03:03:04;;;;;;;0.87;0.37;;;;;;;3.14;77.01;99052.58;1774321;80;21618;-49
2022/04/19 03:05:33;;;;;;;0.83;0.40;;;;;;;3.15;76.94;99057.83;1774598;80;21041;-50
2022/04/19 03:08:00;;;;;;;0.50;0.50;;;;;;;3.17;76.84;99048.02;1765073;80;22254;-50
2022/04/19 03:10:28;;;;;;;0.40;0.30;;;;;;;3.19;76.82;99051.98;1803827;79;21327;-49
2022/04/19 03:12:56;;;;;;;1.23;0.40;;;;;;;3.18;76.66;99044.45;1778470;78;21042;-50
2022/04/19 03:15:27;;;;;;;1.20;0.50;;;;;;;3.13;76.62;99040.20;1785487;79;21072;-50
2022/04/19 03:17:55;;;;;;;0.90;0.40;;;;;;;3.09;76.65;99046.05;1785870;79;21439;-49
2022/04/19 03:20:24;;;;;;;0.80;0.40;;;;;;;3.06;76.71;99046.62;1783317;79;21584;-49
2022/04/19 03:28:26;;;;;;;0.60;0.40;;;;;;;3.00;76.96;99044.98;1806487;78;21087;-50
2022/04/19 03:30:53;;;;;;;0.67;0.40;;;;;;;3.03;77.09;99055.55;1778292;80;21020;-51
2022/04/19 03:33:21;;;;;;;1.30;1.07;;;;;;;3.06;77.05;99062.57;1773201;80;21190;-49
2022/04/19 03:35:49;;;;;;;0.40;0.40;;;;;;;3.11;77.09;99061.97;1789131;78;21022;-49
2022/04/19 03:38:16;;;;;;;0.40;0.33;;;;;;;3.16;77.05;99058.25;1779158;79;20926;-50
2022/04/19 03:40:43;;;;;;;0.60;0.40;;;;;;;3.19;76.99;99063.94;1765525;79;21029;-49
2022/04/19 03:43:11;;;;;;;1.00;0.50;;;;;;;3.18;76.93;99050.23;1783849;79;21066;-49
2022/04/19 03:45:39;;;;;;;1.53;0.40;;;;;;;3.16;77.01;99055.59;1786406;79;21036;-50
2022/04/19 03:48:06;;;;;;;1.03;0.40;;;;;;;3.11;76.97;99056.19;1791110;79;21345;-50
2022/04/19 03:50:34;;;;;;;1.67;0.40;;;;;;;3.08;77.14;99058.93;1808362;78;20891;-50
2022/04/19 03:53:01;;;;;;;0.53;0.30;;;;;;;3.08;77.29;99066.03;1777696;80;21049;-50
2022/04/19 03:55:27;;;;;;;0.60;0.40;;;;;;;3.10;77.37;99060.22;1803084;78;21570;-50
2022/04/19 03:57:54;;;;;;;0.40;0.40;;;;;;;3.12;77.41;99055.73;1802282;78;21736;-50
2022/04/19 04:00:21;;;;;;;0.60;0.40;;;;;;;3.15;77.49;99053.00;1776623;80;21112;-50
2022/04/19 04:02:49;;;;;;;0.53;0.40;;;;;;;3.16;77.56;99048.06;1806799;78;21033;-50
2022/04/19 04:05:17;;;;;;;0.50;0.30;;;;;;;3.19;77.64;99051.52;1805511;78;21532;-50
2022/04/19 04:07:44;;;;;;;0.27;0.23;;;;;;;3.20;77.65;99043.08;1790836;79;20957;-49
2022/04/19 04:10:13;;;;;;;0.60;0.40;;;;;;;3.21;77.64;99042.17;1788301;79;21854;-49
2022/04/19 04:12:40;;;;;;;0.40;0.30;;;;;;;3.23;77.60;99043.00;1760634;79;21113;-49
2022/04/19 04:15:09;;;;;;;0.90;0.70;;;;;;;3.23;77.62;99038.52;1750364;81;21073;-49
2022/04/19 04:17:37;;;;;;;0.47;0.40;;;;;;;3.23;77.71;99042.52;1753270;81;21972;-50
2022/04/19 04:20:07;;;;;;;0.30;0.30;;;;;;;3.23;77.70;99039.85;1752820;81;20926;-50
2022/04/19 04:22:33;;;;;;;0.37;0.30;;;;;;;3.29;77.88;99031.72;1746534;81;23281;-50
2022/04/19 04:25:02;;;;;;;0.40;0.30;;;;;;;3.39;77.74;99023.88;1754421;81;20950;-49
2022/04/19 04:27:30;;;;;;;0.50;0.30;;;;;;;3.51;77.78;99017.73;1755012;81;20949;-48
2022/04/19 04:29:56;;;;;;;0.47;0.30;;;;;;;3.63;77.62;99022.22;1755750;81;20934;-48
2022/04/19 04:32:24;;;;;;;0.50;0.30;;;;;;;3.73;77.22;99014.36;1755077;81;20953;-48
2022/04/19 04:34:51;;;;;;;1.50;0.30;;;;;;;3.84;76.79;99011.78;1756573;81;21807;-48
2022/04/19 04:37:18;;;;;;;0.80;0.40;;;;;;;3.89;76.61;99013.85;1756667;81;20966;-49
2022/04/19 04:39:47;;;;;;;1.53;0.40;;;;;;;3.95;75.98;99016.30;1755108;81;21511;-48
2022/04/19 04:42:26;;;;;;;0.50;0.30;;;;;;;4.00;75.37;99025.00;1754222;81;20910;-49
2022/04/19 04:44:55;;;;;;;0.63;0.40;;;;;;;4.05;75.22;99025.27;1754725;81;20992;-49
2022/04/19 04:50:09;;;;;;;0.53;0.30;;;;;;;4.14;74.71;99013.44;1752939;81;21411;-49
2022/04/19 04:52:36;;;;;;;0.37;0.30;;;;;;;4.19;74.48;99007.48;1752623;81;20925;-51
2022/04/19 04:55:05;;;;;;;0.50;0.30;;;;;;;4.25;74.15;99006.42;1716811;81;22337;-51
2022/04/19 04:57:35;;;;;;;0.40;0.30;;;;;;;4.34;74.20;99011.44;1737997;82;20970;-50
2022/04/19 05:00:04;;;;;;;0.53;0.30;;;;;;;4.46;73.93;99001.20;1710728;82;21651;-50
2022/04/19 05:02:32;;;;;;;0.40;0.30;;;;;;;4.57;73.51;98996.83;1733610;82;20931;-50
2022/04/19 05:04:58;;;;;;;0.30;0.30;;;;;;;4.68;73.39;98996.45;1737758;82;21190;-49
2022/04/19 05:07:26;;;;;;;0.30;0.20;;;;;;;4.77;72.60;98996.95;1737167;81;20924;-50
2022/04/19 05:09:59;;;;;;;0.50;0.40;;;;;;;4.82;72.15;99004.80;1731374;82;21046;-51
2022/04/19 05:12:26;;;;;;;0.40;0.30;;;;;;;4.84;71.73;99015.83;1788580;79;21711;-51
2022/04/19 05:14:52;;;;;;;0.50;0.30;;;;;;;4.80;70.74;99010.64;1776025;80;20878;-50
2022/04/19 05:17:19;;;;;;;0.37;0.30;;;;;;;4.75;71.02;99012.63;1778094;79;20886;-51
2022/04/19 05:19:46;;;;;;;0.77;0.40;;;;;;;4.76;71.20;99005.03;1774463;80;20903;-51
2022/04/19 05:22:15;;;;;;;0.50;0.40;;;;;;;4.81;71.40;99017.72;1776454;80;20989;-51
2022/04/19 05:24:41;;;;;;;0.70;0.43;;;;;;;4.90;71.29;99012.05;1799457;79;21081;-50
2022/04/19 05:27:08;;;;;;;1.13;0.40;;;;;;;4.99;70.97;99017.05;1773813;79;21433;-50
2022/04/19 05:29:35;;;;;;;0.70;0.50;;;;;;;5.07;70.28;99022.96;1779958;79;20962;-50
2022/04/19 05:32:01;;;;;;;0.60;0.37;;;;;;;5.10;69.75;99025.98;1775363;80;21341;-50
2022/04/19 05:34:28;;;;;;;0.80;0.50;;;;;;;5.09;69.50;99026.45;1771309;80;21011;-51
2022/04/19 05:36:55;;;;;;;0.50;0.50;;;;;;;5.08;69.31;99023.37;1768007;79;22385;-51
2022/04/19 05:39:23;;;;;;;0.90;0.50;;;;;;;5.08;69.34;99020.70;1766260;79;21010;-50
2022/04/19 05:41:50;;;;;;;1.30;0.40;;;;;;;5.09;69.20;99024.24;1771650;80;21097;-51
2022/04/19 05:44:20;;;;;;;1.17;0.60;;;;;;;5.07;69.08;99023.42;1784477;79;21393;-51
2022/04/19 05:46:48;;;;;;;3.63;0.60;;;;;;;5.06;69.20;99017.67;1803581;79;20997;-51
2022/04/19 05:49:16;;;;;;;1.37;0.53;;;;;;;5.04;69.20;99015.52;1772839;80;21053;-51
2022/04/19 05:51:45;;;;;;;3.17;0.70;;;;;;;5.03;69.09;99013.78;1799789;79;20942;-51
2022/04/19 05:54:12;;;;;;;1.93;0.80;;;;;;;5.07;69.24;99023.42;1780822;79;21045;-51
2022/04/19 05:56:40;;;;;;;2.03;0.60;;;;;;;5.09;69.03;99032.25;1755178;79;21279;-51
2022/04/19 05:59:08;;;;;;;1.80;0.60;;;;;;;5.10;69.04;99031.32;1785709;79;21040;-51
2022/04/19 06:07:01;;;;;;;1.33;0.90;;;;;;;5.05;68.98;99024.81;1804912;79;20895;-50
2022/04/19 06:09:27;;;;;;;1.00;0.70;;;;;;;5.02;69.10;99026.73;1806470;79;20879;-51
2022/04/19 06:11:55;;;;;;;1.90;0.60;;;;;;;4.98;69.01;99031.30;1771097;80;21050;-50
2022/04/19 06:14:22;;;;;;;0.80;0.60;;;;;;;4.98;69.13;99027.77;1739418;80;21468;-51
2022/04/19 06:16:49;;;;;;;2.27;0.70;;;;;;;4.98;69.05;99027.30;1750147;81;20902;-51
2022/04/19 06:19:17;;;;;;;1.40;0.60;;;;;;;5.00;69.27;99027.25;1744278;80;21237;-49
2022/04/19 06:21:45;;;;;;;0.93;0.70;;;;;;;5.06;69.43;99018.55;1741579;80;20962;-51
2022/04/19 06:27:09;;;;;;;1.30;0.60;;;;;;;5.23;69.62;99024.11;1835212;76;24049;-52
2022/04/19 06:29:35;;;;;;;1.10;0.80;;;;;;;5.28;69.57;99035.93;1804097;78;21037;-51
2022/04/19 06:32:03;;;;;;;3.10;1.20;;;;;;;5.33;69.29;99032.18;1805289;77;22376;-52
2022/04/19 06:34:34;;;;;;;1.07;0.87;;;;;;;5.35;69.23;99028.13;1804098;78;21236;-52
2022/04/19 06:37:05;;;;;;;1.50;0.70;;;;;;;5.39;69.18;99026.19;1805475;78;20981;-52
2022/04/19 06:39:31;;;;;;;0.90;0.70;;;;;;;5.40;69.40;99028.80;1747342;77;21519;-53
2022/04/19 06:41:58;;;;;;;3.07;0.90;;;;;;;5.49;69.26;99033.78;1805910;78;21320;-52
2022/04/19 06:44:26;;;;;;;2.03;0.80;;;;;;;5.54;69.04;99028.25;1803641;77;21305;-49
2022/04/19 06:46:56;;;;;;;1.43;0.80;;;;;;;5.56;69.16;99030.41;1794984;78;21526;-49
2022/04/19 06:49:23;;;;;;;2.20;0.90;;;;;;;5.59;69.11;99035.17;1802447;77;21401;-50
2022/04/19 06:51:50;;;;;;;1.50;0.83;;;;;;;5.65;68.90;99022.03;1806355;78;21013;-49
2022/04/19 06:54:18;;;;;;;2.27;1.83;;;;;;;5.69;68.75;99015.66;1805489;77;21440;-50
2022/04/19 06:56:46;;;;;;;1.63;1.00;;;;;;;5.67;68.35;99009.03;1803063;77;21251;-50
2022/04/19 06:59:13;;;;;;;1.13;0.80;;;;;;;5.70;68.57;99000.01;1801867;77;21076;-50
2022/04/19 07:01:42;;;;;;;2.33;0.90;;;;;;;5.81;68.88;99004.92;1800718;79;22230;-50
2022/04/19 07:04:19;;;;;;;2.07;0.80;;;;;;;5.90;68.29;98988.55;1795190;79;21081;-50
2022/04/19 07:06:51;;;;;;;1.20;0.80;;;;;;;5.98;68.13;98987.77;1798419;78;20918;-51
2022/04/19 07:09:18;;;;;;;2.27;1.00;;;;;;;6.04;67.83;98980.36;1793251;77;21095;-50
2022/04/19 07:11:46;;;;;;;2.80;0.87;;;;;;;6.11;67.42;98989.02;1798488;79;20902;-49
2022/04/19 07:14:18;;;;;;;1.17;0.80;;;;;;;6.08;67.06;98987.33;1800902;79;20882;-51
2022/04/19 07:16:48;;;;;;;1.87;1.10;;;;;;;6.05;67.29;98990.11;1792031;77;21096;-49
2022/04/19 07:19:15;;;;;;;1.90;1.00;;;;;;;6.07;67.09;98986.92;1795914;79;21029;-49
2022/04/19 07:27:15;;;;;;;1.53;0.90;;;;;;;6.09;66.80;98989.53;1797354;77;21037;-50
2022/04/19 07:29:42;;;;;;;1.10;1.00;;;;;;;6.08;66.87;99004.70;1798396;78;21032;-50
2022/04/19 07:32:09;;;;;;;1.30;1.20;;;;;;;6.11;66.92;99013.05;1801761;78;21416;-51
2022/04/19 07:34:39;;;;;;;2.40;0.87;;;;;;;6.15;67.13;99016.45;1796265;77;21047;-49
2022/04/19 07:37:07;;;;;;;2.50;0.80;;;;;;;6.23;67.02;99011.65;1800595;77;20945;-50
2022/04/19 07:39:33;;;;;;;1.10;0.87;;;;;;;6.30;66.79;99018.47;1801446;78;21547;-50
2022/04/19 07:42:00;;;;;;;1.33;0.90;;;;;;;6.28;66.57;99020.36;1800199;78;20902;-50
2022/04/19 07:44:29;;;;;;;1.40;0.80;;;;;;;6.29;66.71;99010.08;1800971;78;20926;-50
2022/04/19 07:46:57;;;;;;;1.10;0.80;;;;;;;6.33;66.52;99016.55;1798057;78;20890;-49
2022/04/19 07:49:23;;;;;;;6.90;0.87;;;;;;;6.34;66.62;99005.39;1797821;77;20938;-50
2022/04/19 07:51:51;;;;;;;1.13;0.80;;;;;;;6.36;66.35;99000.86;1779524;78;20959;-51
2022/04/19 07:54:18;;;;;;;1.10;0.70;;;;;;;6.41;66.59;99002.38;1798994;78;20872;-50
2022/04/19 07:56:45;;;;;;;1.23;0.90;;;;;;;6.51;66.55;98996.17;1773884;78;20960;-49
2022/04/19 07:59:12;;;;;;;1.73;0.87;;;;;;;6.57;66.06;98998.57;1797593;78;21796;-50
2022/04/19 08:01:39;;;;;;;0.93;0.70;;;;;;;6.58;65.80;98997.64;1797308;78;21482;-51
2022/04/19 08:04:08;;;;;;;2.20;0.87;;;;;;;6.58;65.96;98999.44;1802807;78;20971;-50
2022/04/19 08:06:34;;;;;;;1.10;0.90;;;;;;;6.61;65.88;99005.53;1799682;78;20956;-50
2022/04/19 08:09:02;;;;;;;2.10;0.90;;;;;;;6.59;65.58;99014.08;1798884;78;20945;-50
2022/04/19 08:11:30;;;;;;;1.27;0.80;;;;;;;6.53;65.68;99014.36;1799404;78;20978;-52
2022/04/19 08:13:57;;;;;;;1.87;0.83;;;;;;;6.49;65.74;99003.85;1803026;78;20918;-51
2022/04/19 08:16:25;;;;;;;1.17;0.67;;;;;;;6.45;65.78;99003.13;1801141;77;20923;-51
2022/04/19 08:18:53;;;;;;;1.10;0.60;;;;;;;6.42;65.78;99008.60;1797498;78;21008;-50
2022/04/19 08:21:19;;;;;;;1.50;0.80;;;;;;;6.39;65.99;98998.90;1798974;78;21595;-51
2022/04/19 08:23:46;;;;;;;1.93;0.70;;;;;;;6.42;66.19;98992.56;1795186;78;21144;-52
2022/04/19 08:26:16;;;;;;;0.90;0.60;;;;;;;6.46;66.27;98984.33;1781488;78;21258;-51
2022/04/19 08:28:44;;;;;;;0.70;0.60;;;;;;;6.54;66.05;98979.14;1749126;80;21064;-51
2022/04/19 08:31:11;;;;;;;0.60;0.57;;;;;;;6.59;66.03;98976.65;1748693;80;21421;-52
2022/04/19 08:33:39;;;;;;;0.53;0.53;;;;;;;6.64;65.71;98966.60;1752121;80;20958;-50
2022/04/19 08:36:09;;;;;;;2.23;0.70;;;;;;;6.64;65.41;98966.60;1733091;80;20903;-50
2022/04/19 08:38:37;;;;;;;2.07;0.73;;;;;;;6.62;65.40;98967.16;1752613;80;20946;-50
2022/04/19 08:41:04;;;;;;;0.97;0.60;;;;;;;6.58;65.40;98958.00;1726630;80;22031;-51
2022/04/19 08:43:31;;;;;;;0.90;0.67;;;;;;;6.56;65.68;98959.39;1749848;80;21302;-51
2022/04/19 08:45:58;;;;;;;1.10;0.87;;;;;;;6.57;65.63;98963.81;1749396;80;21077;-51
2022/04/19 08:48:26;;;;;;;1.83;0.60;;;;;;;6.60;65.71;98952.98;1751240;80;22328;-51
2022/04/19 08:50:54;;;;;;;0.70;0.50;;;;;;;6.65;65.57;98959.45;1748252;80;21073;-51
2022/04/19 08:58:52;;;;;;;1.33;0.60;;;;;;;6.75;65.09;98960.78;1747812;80;21034;-49
2022/04/19 09:01:18;;;;;;;2.70;0.77;;;;;;;6.80;65.14;98964.14;1749495;80;21567;-51
2022/04/19 09:03:45;;;;;;;1.00;0.70;;;;;;;6.83;65.02;98959.96;1751135;80;21001;-50
2022/04/19 09:06:11;;;;;;;2.50;0.70;;;;;;;6.86;64.98;98968.33;1746968;80;21073;-50
2022/04/19 09:08:38;;;;;;;1.07;0.70;;;;;;;6.86;64.88;98971.87;1748407;80;21092;-51
2022/04/19 09:11:07;;;;;;;2.13;0.70;;;;;;;6.87;64.61;98975.42;1747694;80;21570;-51
2022/04/19 09:13:33;;;;;;;1.10;0.80;;;;;;;6.82;64.60;98972.94;1750004;80;21459;-51
2022/04/19 09:16:06;;;;;;;2.60;0.73;;;;;;;6.81;64.76;98960.49;1752090;80;21102;-50
2022/04/19 09:18:36;;;;;;;1.07;0.60;;;;;;;6.82;64.93;98967.58;1748526;80;21009;-51
2022/04/19 09:21:04;;;;;;;0.77;0.60;;;;;;;6.88;64.96;98974.02;1746207;80;21603;-51
2022/04/19 09:23:32;;;;;;;1.40;0.70;;;;;;;6.97;64.71;98981.63;1751400;80;20910;-50
2022/04/19 09:26:05;;;;;;;1.40;0.60;;;;;;;7.06;64.44;98981.17;1751106;78;21992;-51
2022/04/19 09:28:34;;;;;;;0.80;0.60;;;;;;;7.12;64.37;98975.56;1776908;78;21325;-51
2022/04/19 09:31:13;;;;;;;1.67;0.80;;;;;;;7.20;64.23;98974.73;1769910;78;21643;-50
2022/04/19 09:33:41;;;;;;;1.80;0.70;;;;;;;7.27;63.83;98973.96;1772722;78;20952;-50
2022/04/19 09:36:08;;;;;;;2.03;0.60;;;;;;;7.32;63.70;98966.56;1775669;78;21103;-50
2022/04/19 09:38:46;;;;;;;0.50;0.50;;;;;;;7.34;63.39;98959.81;1774616;78;21502;-51
2022/04/19 09:41:31;;;;;;;0.70;0.40;;;;;;;7.38;63.67;98960.08;1774949;78;21120;-51
2022/04/19 09:44:08;;;;;;;2.67;0.70;;;;;;;7.41;63.21;98964.80;1774847;78;21849;-51
2022/04/19 09:46:36;;;;;;;0.70;0.50;;;;;;;7.40;63.28;98973.77;1774836;78;20906;-51
2022/04/19 09:49:03;;;;;;;1.23;0.50;;;;;;;7.40;63.32;98975.10;1775139;78;20961;-50
2022/04/19 09:51:31;;;;;;;0.60;0.50;;;;;;;7.40;63.55;98979.63;1774455;78;21456;-50
2022/04/19 09:53:58;;;;;;;0.50;0.33;;;;;;;7.39;63.14;98981.89;1771433;78;21557;-51
2022/04/19 09:56:25;;;;;;;1.43;0.40;;;;;;;7.31;63.21;98984.94;1772076;78;21036;-52
2022/04/19 09:58:53;;;;;;;0.63;0.50;;;;;;;7.23;63.36;98976.37;1750860;78;21071;-50
2022/04/19 10:09:33;;;;;;;0.50;0.40;;;;;;;7.35;64.16;98987.85;1777873;78;20952;-50
2022/04/19 10:12:04;;;;;;;2.40;0.37;;;;;;;7.48;63.89;98982.80;1752068;79;20937;-51
2022/04/19 10:14:31;;;;;;;0.50;0.40;;;;;;;7.58;63.64;98975.56;1777557;78;20902;-51
2022/04/19 10:16:58;;;;;;;0.40;0.40;;;;;;;7.65;63.28;98980.17;1771726;78;21737;-52
2022/04/19 10:19:24;;;;;;;0.50;0.40;;;;;;;7.65;62.88;98980.17;1775100;78;21489;-51
2022/04/19 10:21:51;;;;;;;0.50;0.40;;;;;;;7.64;63.08;98973.55;1777560;78;21008;-51
2022/04/19 10:24:19;;;;;;;1.03;0.50;;;;;;;7.64;63.18;98978.91;1773057;78;21068;-50
2022/04/19 10:26:51;;;;;;;0.50;0.30;;;;;;;7.63;63.04;98979.84;1780882;78;21029;-50
2022/04/19 10:29:24;;;;;;;0.40;0.30;;;;;;;7.62;63.14;98976.77;1800489;78;21211;-50
2022/04/19 10:32:02;;;;;;;1.60;0.30;;;;;;;7.61;63.18;98975.89;1802481;78;20910;-51
2022/04/19 10:34:35;;;;;;;0.83;0.30;;;;;;;7.62;63.46;98978.97;1797915;78;21085;-51
2022/04/19 10:37:19;;;;;;;0.33;0.33;;;;;;;7.65;63.05;98990.02;1794678;78;21046;-51
2022/04/19 10:39:49;;;;;;;0.30;0.30;;;;;;;7.62;63.15;98992.36;1799841;78;20882;-51
2022/04/19 10:42:32;;;;;;;0.50;0.30;;;;;;;7.64;63.26;98990.48;1798283;78;21404;-49
2022/04/19 10:45:14;;;;;;;0.40;0.30;;;;;;;7.69;63.20;98991.59;1800062;78;20922;-51
2022/04/19 10:47:59;;;;;;;0.40;0.20;;;;;;;7.75;63.14;98997.51;1795411;78;20846;-51
2022/04/19 10:50:39;;;;;;;0.75;0.30;;;;;;;7.81;62.96;98984.31;1797528;78;21441;-51
2022/04/19 10:53:06;;;;;;;0.40;0.30;;;;;;;7.86;62.79;98979.58;1797187;78;20967;-51
2022/04/19 10:55:41;;;;;;;0.83;0.30;;;;;;;7.91;62.74;98990.95;1798674;78;21515;-52
2022/04/19 10:58:13;;;;;;;1.00;0.50;;;;;;;7.95;62.59;98992.05;1798443;78;20990;-52
2022/04/19 11:00:52;;;;;;;0.53;0.30;;;;;;;7.95;62.40;98990.71;1801845;78;20902;-51
2022/04/19 11:03:33;;;;;;;0.40;0.30;;;;;;;7.91;62.65;98986.44;1799456;78;20906;-51
2022/04/19 11:06:03;;;;;;;0.20;0.20;;;;;;;7.93;62.71;98976.52;1802362;78;20902;-53
2022/04/19 11:08:38;;;;;;;0.30;0.20;;;;;;;7.98;62.48;98973.16;1798014;78;21721;-52
2022/04/19 11:11:20;;;;;;;0.30;0.30;;;;;;;8.05;62.86;98981.75;1798782;78;20947;-53
2022/04/19 11:13:43;;;;;;;0.20;0.20;;;;;;;8.14;62.50;98972.37;1789800;78;21045;-51
2022/04/19 11:16:12;;;;;;;0.30;0.20;;;;;;;8.20;62.31;98975.61;1798663;78;21531;-50
2022/04/19 11:18:44;;;;;;;0.20;0.20;;;;;;;8.28;62.05;98972.06;1797413;78;21646;-51
2022/04/19 11:21:12;;;;;;;0.30;0.20;;;;;;;8.39;61.77;98974.23;1799331;78;20910;-52
2022/04/19 11:23:47;;;;;;;0.47;0.20;;;;;;;8.51;61.68;98974.05;1795451;78;21251;-51
2022/04/19 11:26:33;;;;;;;0.20;0.20;;;;;;;8.65;61.36;98968.38;1800448;78;20962;-51
2022/04/19 11:29:12;;;;;;;0.23;0.20;;;;;;;8.79;60.70;98962.73;1795640;78;21052;-52
2022/04/19 11:31:49;;;;;;;0.40;0.30;;;;;;;8.89;60.38;98947.88;1782769;78;21531;-52
2022/04/19 11:34:16;;;;;;;0.23;0.20;;;;;;;8.89;60.02;98952.77;1795386;78;21126;-52
2022/04/19 11:36:43;;;;;;;0.30;0.20;;;;;;;8.88;59.94;98949.70;1794664;78;21034;-51
2022/04/19 11:47:58;;;;;;;1.95;0.30;;;;;;;8.84;59.33;98933.38;1798815;78;21104;-51
2022/04/19 11:50:31;;;;;;;0.80;0.20;;;;;;;8.84;59.58;98929.36;1797055;78;21753;-51
2022/04/19 11:52:58;;;;;;;2.30;0.40;;;;;;;8.87;59.52;98931.86;1800516;78;21092;-50
2022/04/19 11:55:27;;;;;;;0.30;0.20;;;;;;;8.93;59.90;98930.17;1793617;78;21528;-51
2022/04/19 11:58:08;;;;;;;0.30;0.30;;;;;;;9.07;59.59;98919.56;1801575;78;21095;-53
2022/04/19 12:00:35;;;;;;;1.82;0.28;;;;;;;9.21;59.53;98924.63;1798727;78;21858;-51
2022/04/19 12:03:05;;;;;;;0.40;0.30;;;;;;;9.35;58.74;98926.09;1796679;78;21065;-51
2022/04/19 12:05:32;;;;;;;0.33;0.25;;;;;;;9.42;58.45;98912.22;1797610;78;21005;-51
2022/04/19 12:07:59;;;;;;;0.42;0.30;;;;;;;9.47;58.60;98911.47;1796033;78;22021;-52
2022/04/19 12:10:28;;;;;;;0.40;0.30;;;;;;;9.53;58.27;98922.84;1798100;78;20994;-52
2022/04/19 12:12:54;;;;;;;0.45;0.30;;;;;;;9.54;57.83;98920.52;1799149;78;21819;-51
2022/04/19 12:15:41;;;;;;;0.33;0.30;;;;;;;9.51;57.70;98909.48;1796947;78;21029;-51
2022/04/19 12:18:10;;;;;;;0.45;0.30;;;;;;;9.47;57.70;98922.22;1800190;78;21195;-52
2022/04/19 12:20:43;;;;;;;0.40;0.30;;;;;;;9.39;57.79;98915.07;1799712;78;20965;-52
2022/04/19 12:23:19;;;;;;;0.30;0.23;;;;;;;9.37;57.99;98918.78;1793553;78;21030;-52
2022/04/19 12:26:03;;;;;;;1.57;0.25;;;;;;;9.35;57.93;98917.55;1797050;78;22303;-52
2022/04/19 12:28:45;;;;;;;0.20;0.17;;;;;;;9.34;57.80;98914.95;1766571;78;22003;-52
2022/04/19 12:31:36;;;;;;;0.20;0.20;;;;;;;9.32;57.89;98901.60;1761513;79;21382;-51
2022/04/19 12:34:04;;;;;;;1.47;0.20;;;;;;;9.28;57.98;98906.74;1745641;80;21522;-51
2022/04/19 12:36:48;;;;;;;0.40;0.20;;;;;;;9.20;58.14;98914.84;1745305;80;21060;-52